Time;durP1;ratioP1;P1;durP2;ratioP2;P2;SDS_P1;SDS_P2;PMS_P1;PMS_P2;Temp;Humidity;BMP_temperature;BMP_pressure;BME280_temperature;BME280_humidity;BME280_pressure;Samples;Min_cycle;Max_cycle;Signal;HPM_P1;HPM_P2
2022/10/04 00:02:20;;;;;;;28.33;9.93;;;6.60;1.00;;;;;;5081842;28;20585;-80
2022/10/04 00:11:34;;;;;;;21.83;9.67;;;6.60;1.00;;;;;;5086115;28;20488;-80
2022/10/04 00:17:30;;;;;;;19.40;9.10;;;6.50;1.00;;;;;;5078505;28;20899;-91
2022/10/04 00:20:24;;;;;;;20.00;9.30;;;6.50;1.00;;;;;;5081338;28;20541;-92
2022/10/04 00:26:26;;;;;;;21.00;9.03;;;6.50;1.00;;;;;;5077192;28;20396;-92
2022/10/04 00:29:26;;;;;;;47.60;10.23;;;6.50;1.00;;;;;;5077658;28;20417;-92
2022/10/04 00:35:46;;;;;;;21.13;9.57;;;6.40;1.00;;;;;;5077111;28;20470;-92
2022/10/04 00:48:34;;;;;;;23.83;9.80;;;6.30;1.00;;;;;;5076124;28;20392;-80
2022/10/04 00:51:43;;;;;;;23.30;9.50;;;6.30;1.00;;;;;;5092646;28;20950;-80
2022/10/04 00:54:32;;;;;;;20.73;9.13;;;6.20;1.00;;;;;;5080419;28;20433;-80
2022/10/04 00:57:15;;;;;;;17.40;8.70;;;6.30;1.00;;;;;;5082857;28;20408;-80
2022/10/04 01:06:26;;;;;;;31.70;9.20;;;6.20;1.00;;;;;;5076731;28;20916;-92
2022/10/04 01:09:26;;;;;;;18.27;9.20;;;6.20;1.00;;;;;;5075452;28;20429;-92
2022/10/04 01:15:22;;;;;;;26.03;9.00;;;6.00;1.00;;;;;;5075353;28;20487;-80
2022/10/04 01:18:38;;;;;;;20.03;9.63;;;6.00;1.00;;;;;;5080621;28;20433;-80
2022/10/04 01:21:08;;;;;;;11.67;8.30;;;6.00;1.00;;;;;;5082823;28;20427;-80
2022/10/04 01:23:44;;;;;;;16.40;9.67;;;6.00;1.00;;;;;;5081126;28;20420;-80
2022/10/04 01:26:39;;;;;;;15.93;9.13;;;6.00;1.00;;;;;;5083573;28;20933;-80
2022/10/04 01:32:27;;;;;;;24.50;8.40;;;6.00;1.00;;;;;;5079786;28;20436;-93
2022/10/04 01:38:38;;;;;;;25.40;9.90;;;5.90;1.00;;;;;;5090840;28;20421;-92
2022/10/04 01:44:52;;;;;;;20.80;9.97;;;5.90;1.00;;;;;;5092249;28;20488;-92
2022/10/04 01:47:56;;;;;;;32.20;9.27;;;5.90;1.00;;;;;;5084203;28;20970;-92
2022/10/04 01:53:53;;;;;;;25.57;9.80;;;5.90;1.00;;;;;;5076012;28;20423;-92
2022/10/04 01:56:36;;;;;;;19.23;8.50;;;6.00;1.00;;;;;;5091470;28;20420;-92
2022/10/04 02:05:57;;;;;;;16.47;9.87;;;6.00;1.00;;;;;;5095588;28;20404;-92
2022/10/04 02:11:49;;;;;;;23.17;9.70;;;6.00;1.00;;;;;;5090694;28;20476;-92
2022/10/04 02:14:54;;;;;;;23.90;9.67;;;6.00;1.00;;;;;;5074658;28;20478;-92
2022/10/04 02:24:06;;;;;;;25.60;9.03;;;6.00;1.00;;;;;;5083750;28;20408;-92
2022/10/04 02:40:12;;;;;;;19.17;9.43;;;6.30;7.50;;;;;;5079905;28;20391;-80
2022/10/04 02:49:28;;;;;;;35.43;9.53;;;6.60;12.90;;;;;;5089770;28;20408;-93
2022/10/04 02:55:25;;;;;;;24.23;10.03;;;6.80;11.90;;;;;;5086136;28;20461;-93
2022/10/04 03:01:24;;;;;;;22.30;9.27;;;7.00;14.80;;;;;;5079958;28;20991;-81
2022/10/04 03:03:50;;;;;;;36.03;9.70;;;7.00;13.50;;;;;;5078645;28;20516;-81
2022/10/04 03:06:38;;;;;;;17.60;9.10;;;7.10;12.50;;;;;;5081504;28;20484;-81
2022/10/04 03:19:11;;;;;;;22.07;9.03;;;7.40;14.40;;;;;;5085689;28;20939;-93
2022/10/04 03:25:20;;;;;;;19.43;7.90;;;7.50;13.40;;;;;;5078854;28;20961;-92
2022/10/04 03:31:15;;;;;;;67.93;10.07;;;7.60;12.70;;;;;;5076917;28;20463;-81
2022/10/04 03:43:49;;;;;;;29.20;8.90;;;8.00;14.90;;;;;;5091235;28;20384;-81
2022/10/04 03:49:37;;;;;;;29.60;9.33;;;8.00;19.00;;;;;;5078151;28;20486;-81
2022/10/04 03:52:43;;;;;;;47.10;9.23;;;8.10;17.40;;;;;;5089490;28;20439;-81
2022/10/04 03:55:14;;;;;;;40.97;9.73;;;8.20;17.10;;;;;;5032322;28;20572;-81
2022/10/04 04:01:18;;;;;;;21.20;8.83;;;8.30;15.60;;;;;;5035247;28;20797;-83
2022/10/04 04:04:15;;;;;;;23.93;9.23;;;8.30;14.10;;;;;;5035325;28;20448;-83
2022/10/04 04:14:09;;;;;;;49.73;9.87;;;8.40;10.80;;;;;;4976631;28;20465;-85
2022/10/04 04:17:28;;;;;;;31.30;13.53;;;8.40;8.10;;;;;;4976105;28;20433;-85
2022/10/04 04:23:40;;;;;;;46.43;20.30;;;8.40;3.60;;;;;;4915851;29;20807;-84
2022/10/04 04:32:53;;;;;;;39.03;11.60;;;8.50;1.00;;;;;;4950658;29;20489;-85
2022/10/04 04:41:52;;;;;;;25.00;9.40;;;8.50;1.60;;;;;;4912019;29;20424;-76
2022/10/04 04:44:51;;;;;;;43.73;14.80;;;8.60;1.90;;;;;;4932984;29;20485;-78
2022/10/04 04:47:40;;;;;;;27.60;8.40;;;8.60;1.60;;;;;;4944481;29;20475;-76
2022/10/04 04:50:16;;;;;;;11.07;7.13;;;8.70;1.00;;;;;;4943394;29;21022;-76
2022/10/04 04:52:54;;;;;;;25.27;9.70;;;8.70;1.00;;;;;;4954689;29;20806;-76
2022/10/04 04:55:44;;;;;;;46.90;17.80;;;8.70;1.00;;;;;;4987363;28;20446;-75
2022/10/04 04:58:35;;;;;;;250.60;51.77;;;8.70;1.00;;;;;;5033909;28;20565;-75
2022/10/04 05:01:25;;;;;;;239.03;55.33;;;8.70;1.00;;;;;;5014410;28;20435;-77
2022/10/04 05:04:15;;;;;;;159.37;43.80;;;8.70;1.00;;;;;;5014845;28;20486;-76
2022/10/04 05:07:09;;;;;;;22.77;7.70;;;8.70;1.00;;;;;;5018840;28;20431;-76
2022/10/04 05:09:38;;;;;;;16.00;7.17;;;8.70;1.00;;;;;;5021375;28;20914;-76
2022/10/04 05:12:33;;;;;;;43.27;9.87;;;8.70;1.00;;;;;;5016926;28;20932;-76
2022/10/04 05:15:14;;;;;;;38.00;11.87;;;8.70;1.00;;;;;;5028449;28;20451;-76
2022/10/04 05:18:27;;;;;;;23.27;8.63;;;8.70;1.00;;;;;;5077658;28;20432;-76
2022/10/04 05:21:26;;;;;;;25.30;7.40;;;8.70;1.00;;;;;;5089057;28;20423;-76
2022/10/04 05:24:06;;;;;;;14.50;7.53;;;8.70;1.00;;;;;;5076080;28;20444;-76
2022/10/04 05:26:32;;;;;;;68.73;20.03;;;8.80;1.00;;;;;;5079988;28;20460;-75
2022/10/04 05:29:18;;;;;;;21.13;9.43;;;8.70;1.00;;;;;;5096036;28;20431;-75
2022/10/04 05:32:06;;;;;;;9.07;5.23;;;8.70;1.00;;;;;;5089925;28;20222;-77
2022/10/04 05:34:38;;;;;;;48.73;12.43;;;8.70;1.00;;;;;;5079418;28;20907;-76
2022/10/04 05:37:35;;;;;;;116.30;22.80;;;8.80;1.00;;;;;;5077922;28;20513;-76
2022/10/04 05:40:32;;;;;;;33.40;9.97;;;8.80;1.00;;;;;;5079280;28;20964;-76
2022/10/04 05:43:43;;;;;;;21.70;7.30;;;8.80;1.00;;;;;;5095572;28;20511;-75
2022/10/04 05:46:14;;;;;;;49.20;13.07;;;8.80;1.00;;;;;;5013215;28;21054;-75
2022/10/04 05:48:42;;;;;;;64.97;17.40;;;8.80;1.00;;;;;;5013428;28;20523;-75
2022/10/04 05:51:31;;;;;;;88.10;23.00;;;8.80;1.00;;;;;;5008089;28;20456;-75
2022/10/04 06:01:28;;;;;;;76.60;28.07;;;8.90;1.00;;;;;;5013311;28;20399;-77
2022/10/04 06:04:31;;;;;;;45.63;21.30;;;9.00;1.00;;;;;;4954220;28;20478;-83
2022/10/04 06:07:13;;;;;;;75.00;31.97;;;9.10;1.00;;;;;;4959889;28;20438;-77
2022/10/04 06:09:53;;;;;;;60.53;26.43;;;9.20;1.00;;;;;;4973245;28;20433;-77
2022/10/04 06:13:02;;;;;;;38.70;17.70;;;9.20;1.00;;;;;;4974152;28;20468;-77
2022/10/04 06:15:41;;;;;;;20.00;10.63;;;9.30;1.00;;;;;;4971115;28;20438;-76
2022/10/04 06:22:01;;;;;;;22.20;7.90;;;9.50;1.00;;;;;;5026057;28;20818;-76
2022/10/04 06:24:36;;;;;;;19.20;8.83;;;9.60;1.00;;;;;;5023942;28;20458;-76
2022/10/04 06:27:15;;;;;;;15.27;8.10;;;9.60;1.00;;;;;;5019320;28;20447;-76
2022/10/04 06:30:04;;;;;;;17.43;7.83;;;9.70;1.00;;;;;;5016185;28;20569;-76
2022/10/04 06:33:14;;;;;;;14.10;7.23;;;9.70;1.00;;;;;;5022677;28;20864;-76
2022/10/04 06:39:26;;;;;;;15.30;7.13;;;9.80;1.00;;;;;;5081735;28;20417;-81
2022/10/04 06:45:36;;;;;;;8.93;5.93;;;10.00;1.00;;;;;;5073122;28;20983;-82
2022/10/04 06:48:40;;;;;;;9.93;6.43;;;10.00;1.00;;;;;;5073939;28;20436;-82
2022/10/04 06:51:25;;;;;;;11.70;7.63;;;10.10;1.00;;;;;;5074525;28;20462;-82
2022/10/04 06:54:13;;;;;;;12.07;6.60;;;10.10;1.00;;;;;;5077339;28;20530;-82
2022/10/04 06:56:52;;;;;;;9.53;6.10;;;10.20;1.00;;;;;;5077824;28;20415;-82
2022/10/04 06:59:30;;;;;;;11.93;6.00;;;10.20;1.00;;;;;;5082408;28;20409;-81
2022/10/04 07:02:01;;;;;;;206.00;102.40;;;10.30;1.00;;;;;;5074292;28;20436;-80
2022/10/04 07:04:39;;;;;;;30.03;15.30;;;10.40;1.00;;;;;;5075529;28;20527;-82
2022/10/04 07:07:26;;;;;;;451.57;198.30;;;10.50;1.00;;;;;;5072527;28;20539;-82
2022/10/04 07:10:00;;;;;;;69.63;33.17;;;10.50;1.00;;;;;;5082802;28;20740;-81
2022/10/04 07:12:27;;;;;;;97.57;42.90;;;10.60;1.00;;;;;;5074993;28;20420;-81
2022/10/04 07:14:59;;;;;;;20.87;11.13;;;10.70;1.00;;;;;;5079410;28;20432;-81
2022/10/04 07:17:41;;;;;;;48.90;26.00;;;10.80;1.00;;;;;;5075690;28;20441;-81
2022/10/04 07:20:18;;;;;;;23.63;10.87;;;10.90;1.00;;;;;;5083269;28;20429;-81
2022/10/04 07:23:05;;;;;;;46.80;21.47;;;10.90;1.00;;;;;;5080623;28;20448;-82
2022/10/04 07:25:35;;;;;;;476.53;218.90;;;11.00;1.00;;;;;;5082619;28;20905;-81
2022/10/04 07:30:58;;;;;;;147.90;69.90;;;11.10;1.00;;;;;;5074420;28;20532;-81
2022/10/04 07:33:27;;;;;;;116.17;53.10;;;11.20;1.00;;;;;;5075377;28;20942;-81
2022/10/04 07:36:09;;;;;;;40.17;18.00;;;11.30;1.00;;;;;;5087964;28;20428;-81
2022/10/04 07:39:00;;;;;;;83.63;36.40;;;11.30;1.00;;;;;;5082086;28;20432;-81
2022/10/04 07:41:56;;;;;;;17.10;9.27;;;11.40;1.00;;;;;;5081937;28;20420;-82
2022/10/04 07:44:27;;;;;;;11.30;7.80;;;11.50;1.00;;;;;;5080277;28;20907;-81
2022/10/04 07:47:20;;;;;;;13.90;7.77;;;11.70;1.00;;;;;;5080592;28;20440;-77
2022/10/04 07:49:52;;;;;;;10.37;6.27;;;11.80;1.00;;;;;;5082215;28;20429;-77
2022/10/04 07:52:31;;;;;;;11.37;6.47;;;11.90;1.00;;;;;;5077288;28;20754;-77
2022/10/04 07:55:22;;;;;;;12.23;7.07;;;12.00;1.00;;;;;;5081060;28;20419;-76
2022/10/04 07:57:57;;;;;;;15.63;6.97;;;12.10;1.00;;;;;;5093398;28;20424;-76
2022/10/04 08:00:28;;;;;;;17.03;9.30;;;12.20;1.00;;;;;;5076611;28;20421;-76
2022/10/04 08:03:27;;;;;;;12.43;7.57;;;12.30;1.00;;;;;;5076314;28;20470;-81
2022/10/04 08:06:42;;;;;;;10.73;6.60;;;12.30;1.00;;;;;;5079759;28;20466;-82
2022/10/04 08:09:23;;;;;;;12.77;6.90;;;12.40;1.00;;;;;;5030750;28;20431;-72
2022/10/04 08:12:22;;;;;;;16.27;7.63;;;12.40;1.00;;;;;;5031965;28;20454;-72
2022/10/04 08:15:16;;;;;;;16.07;9.27;;;12.50;1.00;;;;;;5023962;28;20801;-72
2022/10/04 08:18:02;;;;;;;42.30;19.23;;;12.50;1.00;;;;;;4970701;28;20444;-72
2022/10/04 08:20:55;;;;;;;40.23;21.93;;;12.60;1.00;;;;;;4971160;28;20469;-72
2022/10/04 08:24:05;;;;;;;10.53;7.90;;;12.70;1.00;;;;;;4959991;28;20439;-73
2022/10/04 08:27:07;;;;;;;13.27;7.30;;;12.80;1.00;;;;;;4915776;29;20777;-73
2022/10/04 08:29:41;;;;;;;12.70;7.20;;;12.90;1.00;;;;;;4916639;29;20482;-72
2022/10/04 08:32:49;;;;;;;10.03;7.10;;;12.90;1.00;;;;;;4916089;29;20448;-72
2022/10/04 08:35:29;;;;;;;11.37;7.93;;;12.90;1.00;;;;;;4916589;29;20595;-72
2022/10/04 08:38:16;;;;;;;14.67;7.40;;;12.90;1.00;;;;;;4917225;29;20423;-73
2022/10/04 08:40:56;;;;;;;16.23;6.77;;;13.10;1.00;;;;;;4916907;29;20832;-73
2022/10/04 08:43:41;;;;;;;11.63;7.50;;;13.10;1.00;;;;;;4904283;29;20441;-72
2022/10/04 08:46:29;;;;;;;23.80;15.03;;;13.20;1.00;;;;;;4949345;28;21165;-73
2022/10/04 08:49:12;;;;;;;12.70;8.07;;;13.20;1.00;;;;;;4928641;29;20427;-68
2022/10/04 08:52:08;;;;;;;9.73;6.50;;;13.30;1.00;;;;;;4935725;29;20542;-68
2022/10/04 08:55:11;;;;;;;10.73;7.00;;;13.40;1.00;;;;;;4955933;28;20441;-67
2022/10/04 08:58:07;;;;;;;9.83;6.40;;;13.50;1.00;;;;;;5029311;28;20420;-68
2022/10/04 09:00:57;;;;;;;11.93;6.80;;;13.50;1.00;;;;;;5072309;28;20439;-67
2022/10/04 09:04:00;;;;;;;10.30;7.27;;;13.50;1.00;;;;;;5072256;28;20460;-72
2022/10/04 09:06:31;;;;;;;11.40;6.37;;;13.60;1.00;;;;;;5061357;28;20425;-74
2022/10/04 09:09:28;;;;;;;11.63;7.57;;;13.70;1.00;;;;;;5070030;28;20425;-72
2022/10/04 09:12:32;;;;;;;12.40;7.27;;;13.70;1.00;;;;;;5071490;28;20503;-72
2022/10/04 09:15:24;;;;;;;7.90;6.23;;;13.80;1.00;;;;;;5069387;28;20955;-72
2022/10/04 09:18:20;;;;;;;11.70;7.23;;;14.00;1.00;;;;;;5070332;28;20413;-72
2022/10/04 09:21:01;;;;;;;10.53;6.90;;;14.10;1.00;;;;;;5079321;28;20477;-72
2022/10/04 09:24:11;;;;;;;27.73;6.90;;;14.20;1.00;;;;;;5074920;28;20417;-72
2022/10/04 09:26:44;;;;;;;10.23;6.67;;;14.30;1.00;;;;;;5075211;28;20448;-72
2022/10/04 09:29:13;;;;;;;10.80;6.43;;;14.40;1.00;;;;;;5074466;28;20417;-72
2022/10/04 09:32:17;;;;;;;16.60;6.63;;;14.60;1.00;;;;;;5075148;28;20918;-72
2022/10/04 09:35:10;;;;;;;10.73;6.63;;;14.60;1.00;;;;;;5027751;28;20443;-67
2022/10/04 09:37:40;;;;;;;8.90;6.13;;;14.60;1.00;;;;;;5029759;28;20423;-68
2022/10/04 09:40:24;;;;;;;9.23;6.20;;;14.60;1.00;;;;;;5024676;28;20441;-68
2022/10/04 09:43:16;;;;;;;9.30;6.77;;;14.70;1.00;;;;;;5030378;28;20510;-68
2022/10/04 09:46:06;;;;;;;10.93;6.00;;;14.80;1.00;;;;;;5023815;28;20442;-68
2022/10/04 09:48:55;;;;;;;20.63;5.73;;;15.00;1.00;;;;;;5027649;28;20417;-73
2022/10/04 09:51:44;;;;;;;8.60;5.73;;;15.10;1.00;;;;;;5031685;28;20465;-73
2022/10/04 09:54:15;;;;;;;8.53;6.00;;;15.20;1.00;;;;;;4932640;29;20530;-73
2022/10/04 09:57:07;;;;;;;10.03;5.73;;;15.40;1.00;;;;;;4931428;29;20443;-73
2022/10/04 09:59:40;;;;;;;5.43;4.87;;;15.30;1.00;;;;;;4931426;29;20418;-73
2022/10/04 10:02:41;;;;;;;10.77;5.20;;;15.50;1.00;;;;;;4931826;29;20947;-70
2022/10/04 10:05:29;;;;;;;6.90;4.50;;;15.60;1.00;;;;;;4933944;29;20441;-68
2022/10/04 10:08:35;;;;;;;8.40;4.50;;;15.80;1.00;;;;;;4934055;29;20463;-68
2022/10/04 10:14:33;;;;;;;6.93;4.60;;;16.10;1.00;;;;;;4910255;29;20442;-79
2022/10/04 10:17:22;;;;;;;9.63;4.60;;;16.50;1.00;;;;;;4912489;29;20951;-78
2022/10/04 10:20:08;;;;;;;7.97;4.30;;;16.70;1.00;;;;;;4877720;29;20543;-78
2022/10/04 10:22:54;;;;;;;7.20;4.17;;;16.90;1.00;;;;;;4873425;29;20424;-79
2022/10/04 10:25:36;;;;;;;6.07;4.10;;;17.10;1.00;;;;;;4875829;29;20562;-78
2022/10/04 10:28:16;;;;;;;4.53;3.20;;;17.20;1.00;;;;;;4875963;29;20424;-78
2022/10/04 10:31:23;;;;;;;4.80;2.90;;;17.30;1.00;;;;;;4889079;29;20995;-79
2022/10/04 10:34:04;;;;;;;6.23;3.00;;;17.30;1.00;;;;;;4896479;29;20393;-79
2022/10/04 10:36:44;;;;;;;7.20;2.87;;;17.10;1.00;;;;;;4876163;29;20456;-78
2022/10/04 10:39:33;;;;;;;11.37;3.23;;;17.10;1.00;;;;;;4896148;29;20520;-78
2022/10/04 10:42:19;;;;;;;8.63;3.40;;;17.10;1.00;;;;;;4915348;29;20474;-78
2022/10/04 10:45:03;;;;;;;9.80;3.20;;;17.00;1.00;;;;;;4926361;29;20514;-79
2022/10/04 10:47:46;;;;;;;7.00;3.40;;;16.90;1.00;;;;;;4916656;29;20428;-78
2022/10/04 10:50:30;;;;;;;6.27;3.17;;;16.70;1.00;;;;;;4933031;29;20439;-78
2022/10/04 10:53:28;;;;;;;9.60;3.00;;;16.40;1.00;;;;;;4928042;29;20571;-78
2022/10/04 10:56:12;;;;;;;6.87;3.10;;;16.40;1.00;;;;;;4926273;28;20582;-78
2022/10/04 10:58:51;;;;;;;4.30;2.70;;;16.40;1.00;;;;;;5022440;28;20460;-78
2022/10/04 11:01:19;;;;;;;4.20;2.80;;;16.40;1.00;;;;;;5014845;28;20515;-78
2022/10/04 11:04:05;;;;;;;5.97;2.80;;;16.40;1.00;;;;;;5016978;28;20844;-78
2022/10/04 11:06:51;;;;;;;6.07;3.30;;;16.50;1.00;;;;;;5024352;28;20602;-78
2022/10/04 11:09:47;;;;;;;7.10;2.70;;;16.60;1.00;;;;;;5025425;28;20402;-78
2022/10/04 11:12:41;;;;;;;6.73;2.70;;;16.80;1.00;;;;;;5088465;28;20465;-78
2022/10/04 11:16:04;;;;;;;13.63;3.00;;;17.00;1.00;;;;;;5079841;28;20748;-78
2022/10/04 11:18:47;;;;;;;7.27;2.83;;;17.40;1.00;;;;;;5024629;28;20428;-79
2022/10/04 11:21:40;;;;;;;3.63;2.70;;;17.60;1.00;;;;;;5021583;28;20403;-79
2022/10/04 11:24:27;;;;;;;3.37;2.43;;;17.60;1.00;;;;;;5026686;28;20419;-79
2022/10/04 11:27:16;;;;;;;12.67;2.80;;;17.60;1.00;;;;;;5027972;28;20520;-78
2022/10/04 11:29:57;;;;;;;6.80;2.87;;;17.40;1.00;;;;;;5028315;28;20516;-78
2022/10/04 11:32:40;;;;;;;5.90;2.43;;;17.50;1.00;;;;;;5023675;28;20522;-78
2022/10/04 11:35:17;;;;;;;5.80;2.47;;;17.40;1.00;;;;;;5025597;28;20422;-78
2022/10/04 11:38:13;;;;;;;4.50;2.13;;;17.50;1.00;;;;;;5026440;28;20515;-78
2022/10/04 11:40:51;;;;;;;4.60;2.30;;;17.60;1.00;;;;;;5030028;28;20425;-78
2022/10/04 11:43:53;;;;;;;4.47;2.77;;;17.70;1.00;;;;;;5028663;28;20423;-78
2022/10/04 11:46:34;;;;;;;3.40;2.90;;;17.70;1.00;;;;;;5013557;28;20405;-79
2022/10/04 11:49:43;;;;;;;6.13;2.53;;;17.80;1.00;;;;;;5042644;28;20392;-78
2022/10/04 11:53:03;;;;;;;4.27;2.37;;;17.80;1.00;;;;;;5078937;28;20454;-78
2022/10/04 11:56:17;;;;;;;5.93;2.20;;;17.90;1.00;;;;;;5008087;28;20415;-78
2022/10/04 11:58:42;;;;;;;10.27;2.80;;;18.00;1.00;;;;;;4943842;28;20443;-78
2022/10/04 12:01:19;;;;;;;4.27;2.37;;;18.10;1.00;;;;;;4943256;28;20483;-78
2022/10/04 12:03:48;;;;;;;6.03;2.40;;;18.00;1.00;;;;;;4932646;29;20572;-78
2022/10/04 12:06:38;;;;;;;3.77;2.37;;;18.10;1.00;;;;;;4944481;29;20413;-78
2022/10/04 12:09:32;;;;;;;3.70;2.30;;;18.10;1.00;;;;;;4940888;28;20400;-78
2022/10/04 12:14:59;;;;;;;9.47;2.00;;;18.00;1.00;;;;;;4942093;29;20408;-78
2022/10/04 12:17:51;;;;;;;5.63;2.27;;;18.00;1.00;;;;;;4937182;29;20416;-78
2022/10/04 12:20:26;;;;;;;2.60;2.40;;;18.10;1.00;;;;;;4936215;29;20484;-80
2022/10/04 12:23:00;;;;;;;3.40;2.13;;;18.20;1.00;;;;;;4944643;29;20421;-79
2022/10/04 12:25:48;;;;;;;4.10;2.20;;;18.20;1.00;;;;;;4939598;29;20411;-79
2022/10/04 12:28:38;;;;;;;6.57;2.47;;;18.20;1.00;;;;;;4946364;28;20487;-80
2022/10/04 12:31:22;;;;;;;3.07;2.03;;;18.40;1.00;;;;;;4995776;28;20545;-79
2022/10/04 12:34:13;;;;;;;6.40;2.40;;;18.50;1.00;;;;;;5004624;28;20964;-78
2022/10/04 12:37:20;;;;;;;3.30;2.20;;;18.70;1.00;;;;;;5088860;28;20409;-78
2022/10/04 12:39:49;;;;;;;3.80;2.20;;;18.80;1.00;;;;;;5088878;28;20471;-78
2022/10/04 12:42:23;;;;;;;6.10;2.20;;;19.00;1.00;;;;;;5079636;28;20768;-78
2022/10/04 12:45:26;;;;;;;9.30;2.47;;;19.10;1.00;;;;;;5075561;28;20469;-78
2022/10/04 12:48:00;;;;;;;1.97;1.87;;;19.10;1.00;;;;;;5084432;28;20407;-78
2022/10/04 12:51:08;;;;;;;5.90;2.57;;;19.20;1.00;;;;;;5075846;28;20443;-79
2022/10/04 12:53:53;;;;;;;2.37;2.17;;;19.20;1.00;;;;;;5076687;28;20423;-79
2022/10/04 12:56:39;;;;;;;6.07;2.13;;;19.20;1.00;;;;;;5086328;28;20424;-79
2022/10/04 12:59:32;;;;;;;3.97;2.40;;;19.30;1.00;;;;;;5024910;28;20416;-79
2022/10/04 13:02:31;;;;;;;2.70;2.00;;;19.40;1.00;;;;;;5032411;28;20624;-78
2022/10/04 13:04:57;;;;;;;6.30;1.97;;;19.40;1.00;;;;;;5019927;28;20437;-78
2022/10/04 13:08:00;;;;;;;8.40;2.13;;;19.40;1.00;;;;;;5023793;28;20445;-79
2022/10/04 13:10:32;;;;;;;4.70;2.27;;;19.30;1.00;;;;;;5031866;28;20462;-79
2022/10/04 13:13:19;;;;;;;2.20;2.00;;;19.40;1.00;;;;;;5028434;28;20945;-78
2022/10/04 13:15:57;;;;;;;9.00;2.60;;;19.40;1.00;;;;;;5023715;28;20423;-79
2022/10/04 13:18:40;;;;;;;6.53;2.00;;;19.50;1.00;;;;;;5032674;28;20386;-79
2022/10/04 13:21:15;;;;;;;10.17;2.47;;;19.60;1.00;;;;;;5032989;28;20921;-79
2022/10/04 13:24:04;;;;;;;2.50;2.30;;;19.60;1.00;;;;;;5028731;28;20552;-79
2022/10/04 13:26:34;;;;;;;4.63;2.23;;;19.70;1.00;;;;;;5030647;28;20416;-79
2022/10/04 13:29:06;;;;;;;2.90;2.30;;;19.70;1.00;;;;;;5029541;28;20537;-79
2022/10/04 13:31:51;;;;;;;7.23;2.50;;;19.70;1.00;;;;;;5025514;28;20465;-78
2022/10/04 13:34:31;;;;;;;8.93;2.67;;;19.60;1.00;;;;;;5031051;28;20442;-79
2022/10/04 13:37:08;;;;;;;4.73;2.40;;;19.60;1.00;;;;;;5078981;28;20431;-79
2022/10/04 13:39:43;;;;;;;11.53;2.97;;;19.60;1.00;;;;;;5080316;28;20418;-79
2022/10/04 13:42:36;;;;;;;4.13;1.87;;;19.60;1.00;;;;;;5074629;28;20406;-79
2022/10/04 13:45:23;;;;;;;6.00;2.50;;;19.70;1.00;;;;;;5083528;28;20474;-79
2022/10/04 13:48:25;;;;;;;2.33;2.10;;;19.70;1.00;;;;;;5077840;28;20391;-79
2022/10/04 13:51:02;;;;;;;9.40;2.60;;;19.80;1.00;;;;;;5073514;28;20468;-78
2022/10/04 13:57:02;;;;;;;2.40;2.10;;;19.80;1.00;;;;;;5074626;28;20478;-78
2022/10/04 13:59:43;;;;;;;2.20;1.80;;;19.80;1.00;;;;;;5074066;28;20394;-78
2022/10/04 14:02:41;;;;;;;5.90;2.20;;;19.90;1.00;;;;;;5080066;28;20418;-79
2022/10/04 14:05:32;;;;;;;2.70;2.20;;;19.90;1.00;;;;;;5016940;28;20446;-79
2022/10/04 14:08:38;;;;;;;3.77;1.97;;;19.90;1.00;;;;;;5029633;28;20409;-78
2022/10/04 14:11:40;;;;;;;7.03;2.17;;;19.90;1.00;;;;;;5024475;28;20490;-78
2022/10/04 14:14:19;;;;;;;6.63;2.00;;;19.90;1.00;;;;;;5036667;28;20999;-79
2022/10/04 14:17:11;;;;;;;2.13;1.93;;;19.90;1.00;;;;;;5038357;28;20485;-78
2022/10/04 14:20:15;;;;;;;5.60;2.10;;;20.00;1.00;;;;;;5033083;28;20438;-78
2022/10/04 14:23:28;;;;;;;3.63;2.00;;;20.10;1.00;;;;;;5030186;28;20865;-78
2022/10/04 14:30:08;;;;;;;9.17;2.07;;;20.20;1.00;;;;;;4929974;29;20463;-78
2022/10/04 14:32:52;;;;;;;4.50;2.20;;;20.20;1.00;;;;;;4915779;29;20429;-78
2022/10/04 14:35:55;;;;;;;2.80;1.93;;;20.20;1.00;;;;;;4937153;29;20822;-78
2022/10/04 14:39:03;;;;;;;3.97;1.67;;;20.20;1.00;;;;;;4938950;29;20453;-79
2022/10/04 14:41:50;;;;;;;4.13;2.27;;;20.20;1.00;;;;;;4969062;28;20451;-78
2022/10/04 14:44:31;;;;;;;4.13;1.80;;;20.30;1.00;;;;;;4980561;28;20478;-78
2022/10/04 14:47:27;;;;;;;5.17;1.97;;;20.30;1.00;;;;;;4986121;28;20488;-80
2022/10/04 14:50:17;;;;;;;2.07;1.60;;;20.20;1.00;;;;;;4980080;28;20924;-78
2022/10/04 14:53:07;;;;;;;12.47;2.03;;;20.40;1.00;;;;;;4970182;28;20468;-78
2022/10/04 14:55:52;;;;;;;14.33;2.10;;;20.50;1.00;;;;;;4982930;28;20428;-79
2022/10/04 14:58:22;;;;;;;3.40;1.90;;;20.40;1.00;;;;;;5008388;28;20410;-78
2022/10/04 15:01:15;;;;;;;4.37;2.07;;;20.50;1.00;;;;;;5003838;28;20444;-79
2022/10/04 15:04:02;;;;;;;4.93;2.37;;;20.50;1.00;;;;;;5003112;28;20450;-79
2022/10/04 15:06:48;;;;;;;8.40;2.00;;;20.60;1.00;;;;;;4995902;28;20428;-76
2022/10/04 15:09:35;;;;;;;5.87;2.40;;;20.60;1.00;;;;;;5002905;28;20452;-77
2022/10/04 15:12:50;;;;;;;5.03;1.90;;;20.50;1.00;;;;;;4993744;28;21061;-77
2022/10/04 15:15:28;;;;;;;7.13;2.40;;;20.60;1.00;;;;;;4990646;28;20451;-77
2022/10/04 15:18:08;;;;;;;10.53;2.63;;;20.60;1.00;;;;;;5070662;28;20403;-78
2022/10/04 15:24:41;;;;;;;4.27;1.83;;;21.70;1.00;;;;;;5079861;28;20452;-81
2022/10/04 15:27:33;;;;;;;7.30;1.97;;;22.60;1.00;;;;;;5010227;28;20415;-79
2022/10/04 15:30:07;;;;;;;6.33;1.90;;;23.50;1.00;;;;;;5010843;28;20430;-78
2022/10/04 15:32:54;;;;;;;3.90;1.70;;;24.50;1.00;;;;;;5011791;28;20762;-77
2022/10/04 15:35:50;;;;;;;10.97;1.63;;;25.30;1.00;;;;;;4991911;28;20826;-78
2022/10/04 15:38:28;;;;;;;8.87;2.20;;;26.50;1.00;;;;;;4991987;28;20430;-77
2022/10/04 15:41:27;;;;;;;3.40;1.40;;;27.50;1.00;;;;;;4994537;28;20465;-77
2022/10/04 15:44:10;;;;;;;2.97;2.00;;;28.00;1.00;;;;;;5003325;28;20442;-76
2022/10/04 15:47:00;;;;;;;5.70;1.67;;;28.60;1.00;;;;;;4996845;28;20405;-77
2022/10/04 15:49:36;;;;;;;10.37;2.17;;;28.90;1.00;;;;;;4998607;28;20915;-76
2022/10/04 15:52:17;;;;;;;12.17;2.43;;;29.10;1.00;;;;;;4996674;28;20465;-78
2022/10/04 15:55:20;;;;;;;4.93;1.90;;;29.20;1.00;;;;;;4995506;28;20483;-77
2022/10/04 15:58:03;;;;;;;8.97;2.40;;;28.80;1.00;;;;;;4992295;28;20778;-77
2022/10/04 16:00:57;;;;;;;12.10;2.30;;;28.20;1.00;;;;;;5021991;28;20424;-78
2022/10/04 16:03:27;;;;;;;7.17;2.23;;;27.60;1.00;;;;;;5087953;28;20453;-77
2022/10/04 16:06:24;;;;;;;6.00;1.90;;;27.00;1.00;;;;;;5074609;28;20607;-77
2022/10/04 16:09:21;;;;;;;6.73;2.00;;;26.30;1.00;;;;;;5074256;28;20468;-77
2022/10/04 16:11:57;;;;;;;9.47;4.93;;;25.30;1.00;;;;;;5080919;28;20454;-77
2022/10/04 16:17:52;;;;;;;5.67;2.63;;;23.70;1.00;;;;;;5081667;28;20468;-77
2022/10/04 16:20:27;;;;;;;5.03;2.60;;;22.80;1.00;;;;;;5079106;28;20434;-77
2022/10/04 16:26:22;;;;;;;10.03;2.30;;;21.50;1.00;;;;;;5082346;28;20407;-78
2022/10/04 16:29:20;;;;;;;7.37;2.73;;;20.80;1.00;;;;;;5073189;28;20945;-77
2022/10/04 16:32:14;;;;;;;8.10;2.70;;;20.30;1.00;;;;;;5075565;28;20616;-77
2022/10/04 16:34:51;;;;;;;15.87;3.60;;;19.70;1.00;;;;;;5002632;28;20536;-77
2022/10/04 16:37:52;;;;;;;14.30;3.63;;;19.20;1.00;;;;;;5009877;28;20453;-78
2022/10/04 16:40:43;;;;;;;17.90;3.73;;;18.80;1.00;;;;;;5004238;28;20485;-76
2022/10/04 16:43:22;;;;;;;11.07;4.20;;;18.40;1.00;;;;;;4999225;28;20447;-76
2022/10/04 16:46:10;;;;;;;13.43;4.07;;;18.10;1.00;;;;;;5005783;28;20474;-76
2022/10/04 16:48:48;;;;;;;12.70;3.90;;;17.80;1.00;;;;;;5006015;28;20481;-76
2022/10/04 16:51:47;;;;;;;7.67;3.50;;;17.40;1.00;;;;;;5013038;28;20961;-76
2022/10/04 16:54:41;;;;;;;16.27;5.20;;;17.20;1.00;;;;;;5004613;28;20502;-76
2022/10/04 16:57:42;;;;;;;12.20;6.90;;;16.90;1.00;;;;;;4994788;28;20434;-76
2022/10/04 17:00:50;;;;;;;12.37;5.20;;;16.60;1.00;;;;;;4991730;28;21131;-76
2022/10/04 17:03:47;;;;;;;8.83;4.13;;;16.40;1.00;;;;;;5009678;28;20426;-76
2022/10/04 17:06:23;;;;;;;24.80;11.60;;;16.10;1.00;;;;;;5007535;28;20485;-77
2022/10/04 17:09:21;;;;;;;13.97;5.77;;;15.90;1.00;;;;;;5014130;28;20420;-76
2022/10/04 17:12:14;;;;;;;9.73;5.03;;;15.70;1.00;;;;;;5047993;28;20467;-79
2022/10/04 17:14:58;;;;;;;10.80;4.20;;;15.50;1.00;;;;;;5075887;28;20420;-79
2022/10/04 17:21:38;;;;;;;11.07;4.40;;;15.10;1.00;;;;;;5093223;28;20419;-76
2022/10/04 17:24:57;;;;;;;8.70;4.47;;;14.90;1.00;;;;;;5076983;28;20410;-74
2022/10/04 17:27:46;;;;;;;5.90;4.50;;;14.70;1.00;;;;;;5086557;28;20430;-77
2022/10/04 17:30:21;;;;;;;8.50;4.33;;;14.50;1.00;;;;;;5076497;28;20420;-75
2022/10/04 17:36:32;;;;;;;7.10;4.30;;;14.20;1.00;;;;;;5081172;28;20387;-78
2022/10/04 17:39:30;;;;;;;9.43;5.03;;;14.10;1.00;;;;;;5088104;28;20446;-88
2022/10/04 17:42:25;;;;;;;7.43;4.50;;;14.00;1.00;;;;;;5094883;28;20412;-88
2022/10/04 17:45:44;;;;;;;15.40;4.60;;;13.80;1.00;;;;;;5094882;28;20987;-87
2022/10/04 17:58:38;;;;;;;8.90;5.00;;;13.30;1.00;;;;;;5076298;28;20894;-86
2022/10/04 18:01:13;;;;;;;10.97;4.77;;;13.20;1.00;;;;;;5095820;28;20395;-89
2022/10/04 18:07:42;;;;;;;8.60;3.83;;;13.10;1.00;;;;;;5080836;28;20395;-77
2022/10/04 18:10:29;;;;;;;10.23;4.77;;;13.00;1.00;;;;;;5001160;28;20432;-77
2022/10/04 18:13:32;;;;;;;9.27;4.63;;;13.00;1.00;;;;;;5011548;28;20486;-78